Time;durP1;ratioP1;P1;durP2;ratioP2;P2;SDS_P1;SDS_P2;PMS_P1;PMS_P2;Temp;Humidity;BMP_temperature;BMP_pressure;BME280_temperature;BME280_humidity;BME280_pressure;Samples;Min_cycle;Max_cycle;Signal;HPM_P1;HPM_P2
2021/12/25 00:03:10;;;;;;;5.63;2.33;;;11.90;99.90;;;;;;10466592;28;20268;-82
2021/12/25 00:08:13;;;;;;;2.87;1.77;;;10.80;92.60;;;;;;10427213;28;20294;-82
2021/12/25 00:13:18;;;;;;;3.47;1.73;;;8.80;92.20;;;;;;10444691;28;20697;-82
2021/12/25 00:18:21;;;;;;;5.07;1.90;;;8.90;99.90;;;;;;10428179;28;20628;-82
2021/12/25 00:23:25;;;;;;;4.40;1.40;;;8.60;99.90;;;;;;10448860;28;20676;-82
2021/12/25 00:38:47;;;;;;;3.10;1.50;;;12.60;99.90;;;;;;10436432;28;20240;-81
2021/12/25 00:43:51;;;;;;;2.50;2.00;;;12.60;99.90;;;;;;10424056;28;20268;-82
2021/12/25 00:48:55;;;;;;;2.87;1.50;;;12.10;99.90;;;;;;10428115;28;20206;-83
2021/12/25 00:53:58;;;;;;;2.00;1.23;;;12.70;99.90;;;;;;10425849;28;20476;-84
2021/12/25 00:59:00;;;;;;;3.83;1.70;;;13.10;99.90;;;;;;10408105;28;20246;-82
2021/12/25 01:04:04;;;;;;;1.97;1.33;;;13.00;99.90;;;;;;10425675;28;20265;-82
2021/12/25 01:09:08;;;;;;;2.70;1.43;;;13.10;99.90;;;;;;10424260;28;20241;-81
2021/12/25 01:14:23;;;;;;;2.00;1.30;;;13.10;99.90;;;;;;10426707;28;20253;-82
2021/12/25 01:30:19;;;;;;;3.30;1.50;;;12.90;99.90;;;;;;10437387;28;20210;-82
2021/12/25 01:41:39;;;;;;;1.90;1.40;;;13.00;99.90;;;;;;10431021;28;20775;-82
2021/12/25 01:52:25;;;;;;;1.47;1.03;;;13.00;99.90;;;;;;10437268;28;20237;-82
2021/12/25 01:57:29;;;;;;;1.60;1.30;;;13.20;99.90;;;;;;10437297;28;20667;-82
2021/12/25 02:02:32;;;;;;;2.07;1.60;;;13.10;99.90;;;;;;10420087;28;20681;-82
2021/12/25 02:07:35;;;;;;;3.13;1.73;;;13.20;99.90;;;;;;10436103;28;20236;-82
2021/12/25 02:12:38;;;;;;;2.37;1.63;;;13.30;99.90;;;;;;10419668;28;20265;-82
2021/12/25 02:18:03;;;;;;;2.30;1.70;;;13.20;99.90;;;;;;10435939;28;20276;-82
2021/12/25 02:23:39;;;;;;;2.03;1.13;;;13.20;99.90;;;;;;10286985;28;20726;-82
2021/12/25 02:28:42;;;;;;;3.03;1.70;;;13.20;99.90;;;;;;10268320;28;20641;-82
2021/12/25 02:33:45;;;;;;;2.70;1.70;;;13.10;99.90;;;;;;10285281;28;20646;-82
2021/12/25 02:38:49;;;;;;;3.20;1.93;;;13.20;99.90;;;;;;10285253;28;20272;-82
2021/12/25 02:43:54;;;;;;;3.03;1.70;;;13.10;99.90;;;;;;10261100;28;20335;-82
2021/12/25 02:49:17;;;;;;;3.53;1.90;;;13.10;99.90;;;;;;10281238;28;20307;-82
2021/12/25 02:54:19;;;;;;;3.23;2.47;;;13.10;99.90;;;;;;10284646;28;20248;-82
2021/12/25 02:59:22;;;;;;;3.20;2.07;;;13.00;99.90;;;;;;10404090;28;20240;-82
2021/12/25 03:04:43;;;;;;;4.47;2.77;;;12.90;99.90;;;;;;10466713;28;20696;-82
2021/12/25 03:09:46;;;;;;;4.13;3.07;;;12.80;99.90;;;;;;10455990;28;20200;-82
2021/12/25 03:15:14;;;;;;;4.77;2.90;;;12.70;99.90;;;;;;10449793;28;20198;-82
2021/12/25 03:20:16;;;;;;;4.97;3.20;;;12.70;99.90;;;;;;10392701;28;20241;-82
2021/12/25 03:25:19;;;;;;;5.43;2.97;;;12.60;99.90;;;;;;10443787;28;20238;-81
2021/12/25 03:30:22;;;;;;;7.20;3.47;;;12.80;99.90;;;;;;10470520;28;20201;-82
2021/12/25 03:35:25;;;;;;;4.57;2.97;;;12.50;99.90;;;;;;10441171;28;20603;-82
2021/12/25 03:40:28;;;;;;;5.50;3.23;;;12.20;99.90;;;;;;10452654;28;20600;-82
2021/12/25 03:45:32;;;;;;;4.00;2.70;;;12.60;99.90;;;;;;10473385;28;20213;-82
2021/12/25 04:01:43;;;;;;;3.87;2.93;;;12.00;99.90;;;;;;10432184;28;20691;-82
2021/12/25 04:06:58;;;;;;;4.67;2.80;;;12.20;99.90;;;;;;10447905;28;20235;-82
2021/12/25 04:12:07;;;;;;;6.03;3.50;;;12.60;99.90;;;;;;10445434;28;20623;-82
2021/12/25 04:17:10;;;;;;;4.43;3.07;;;12.40;99.90;;;;;;10432138;28;20245;-82
2021/12/25 04:22:24;;;;;;;6.40;3.67;;;12.20;99.90;;;;;;10431782;28;20272;-82
2021/12/25 04:27:27;;;;;;;3.87;2.70;;;12.00;99.90;;;;;;10432118;28;20237;-82
2021/12/25 05:04:08;;;;;;;4.80;3.10;;;11.80;99.90;;;;;;10438161;28;20264;-82
2021/12/25 05:09:15;;;;;;;4.83;3.20;;;11.60;99.90;;;;;;10456698;28;20297;-82
2021/12/25 05:14:18;;;;;;;4.60;3.10;;;11.70;99.90;;;;;;10438535;28;20274;-81
2021/12/25 05:19:21;;;;;;;4.43;2.63;;;11.90;99.90;;;;;;10437358;28;20211;-82
2021/12/25 05:24:24;;;;;;;4.17;2.70;;;11.70;99.90;;;;;;10438697;28;20236;-82
2021/12/25 05:29:33;;;;;;;3.93;2.60;;;11.60;99.90;;;;;;10437656;28;20236;-81
2021/12/25 05:34:39;;;;;;;3.53;2.73;;;11.50;99.90;;;;;;10437371;28;20233;-81
2021/12/25 05:39:57;;;;;;;3.60;2.57;;;11.40;99.90;;;;;;10437490;28;20305;-81
2021/12/25 05:45:06;;;;;;;4.67;2.93;;;11.40;99.90;;;;;;10421284;28;20256;-81
2021/12/25 05:50:19;;;;;;;4.33;2.90;;;11.20;99.90;;;;;;10429373;28;20616;-81
2021/12/25 05:55:41;;;;;;;4.90;2.50;;;11.10;99.90;;;;;;10466449;28;20245;-81
2021/12/25 06:01:13;;;;;;;3.53;2.37;;;11.00;99.90;;;;;;10436353;28;20269;-81
2021/12/25 06:06:16;;;;;;;4.83;2.77;;;11.00;99.90;;;;;;10436589;28;20240;-81
2021/12/25 06:11:20;;;;;;;2.97;2.20;;;10.70;99.90;;;;;;10436713;28;20629;-81
2021/12/25 06:16:22;;;;;;;4.07;2.83;;;10.80;99.90;;;;;;10436715;28;20245;-81
2021/12/25 06:21:40;;;;;;;4.60;2.43;;;10.80;99.90;;;;;;10421782;28;20314;-81
2021/12/25 06:27:09;;;;;;;4.73;2.97;;;10.50;99.90;;;;;;10352256;28;20315;-81
2021/12/25 06:32:40;;;;;;;4.17;2.60;;;10.30;99.90;;;;;;10363997;28;20313;-81
2021/12/25 06:38:15;;;;;;;4.70;2.83;;;10.60;99.90;;;;;;10322111;28;20268;-81
2021/12/25 06:43:25;;;;;;;3.53;1.97;;;11.00;99.90;;;;;;10348996;28;20256;-81
2021/12/25 06:48:29;;;;;;;3.03;2.33;;;11.20;99.90;;;;;;10349245;28;20241;-81
2021/12/25 06:53:51;;;;;;;3.97;2.70;;;11.30;99.90;;;;;;10365348;28;20312;-81
2021/12/25 06:59:12;;;;;;;3.50;2.20;;;11.40;99.90;;;;;;10377377;28;20240;-81
2021/12/25 07:04:18;;;;;;;4.77;2.97;;;11.50;99.90;;;;;;10417942;28;20260;-81
2021/12/25 07:09:39;;;;;;;3.43;2.43;;;11.50;99.90;;;;;;10469848;28;20234;-81
2021/12/25 07:14:53;;;;;;;4.73;2.87;;;11.50;99.90;;;;;;10448082;28;20215;-81
2021/12/25 07:20:17;;;;;;;5.77;2.80;;;11.60;99.90;;;;;;10399253;28;20266;-81
2021/12/25 07:25:37;;;;;;;6.30;3.57;;;11.70;99.90;;;;;;10419818;28;20264;-81
2021/12/25 07:30:46;;;;;;;4.97;3.40;;;11.50;99.90;;;;;;10454292;28;20782;-81
2021/12/25 07:35:49;;;;;;;7.30;3.17;;;11.10;99.90;;;;;;10450668;28;20255;-81
2021/12/25 07:40:51;;;;;;;3.83;2.60;;;10.80;99.90;;;;;;10450784;28;20261;-81
2021/12/25 07:45:54;;;;;;;4.90;2.87;;;10.90;99.90;;;;;;10450273;28;20256;-81
2021/12/25 07:50:57;;;;;;;5.57;3.03;;;11.20;99.90;;;;;;10431869;28;20270;-81
2021/12/25 07:56:00;;;;;;;6.10;3.03;;;11.50;99.90;;;;;;10460255;28;20237;-82
2021/12/25 08:01:03;;;;;;;6.70;3.10;;;11.10;99.90;;;;;;10456323;28;20313;-82
2021/12/25 08:06:06;;;;;;;9.23;4.87;;;10.90;99.90;;;;;;10431971;28;20712;-82
2021/12/25 08:11:08;;;;;;;5.57;3.43;;;10.10;99.90;;;;;;10434057;28;20260;-82
2021/12/25 08:16:11;;;;;;;5.33;3.70;;;10.00;99.90;;;;;;10431906;28;20245;-81
2021/12/25 08:21:14;;;;;;;4.57;3.17;;;10.50;99.90;;;;;;10432458;28;20291;-82
2021/12/25 08:26:35;;;;;;;17.07;9.23;;;10.90;99.90;;;;;;10446595;28;20274;-82
2021/12/25 08:31:57;;;;;;;10.20;4.20;;;11.10;99.90;;;;;;10460562;28;20247;-81
2021/12/25 08:37:22;;;;;;;7.47;4.87;;;11.20;99.90;;;;;;10461053;28;20232;-81
2021/12/25 08:42:26;;;;;;;8.23;4.37;;;11.80;99.90;;;;;;10414654;28;20732;-81
2021/12/25 08:47:34;;;;;;;6.47;4.70;;;12.10;99.90;;;;;;10445837;28;20232;-81
2021/12/25 08:52:38;;;;;;;8.57;4.67;;;12.20;99.90;;;;;;10444695;28;20775;-81
2021/12/25 08:57:40;;;;;;;6.70;4.43;;;12.30;99.90;;;;;;10462786;28;20665;-81
2021/12/25 09:02:43;;;;;;;9.13;4.60;;;12.50;99.90;;;;;;10448956;28;20249;-81
2021/12/25 09:07:46;;;;;;;6.60;4.47;;;12.50;99.90;;;;;;10483162;28;20718;-81
2021/12/25 09:12:49;;;;;;;7.10;5.13;;;12.30;99.90;;;;;;10427590;28;20239;-81
2021/12/25 09:17:52;;;;;;;10.20;5.13;;;12.50;99.90;;;;;;10433213;28;20595;-81
2021/12/25 09:22:57;;;;;;;11.30;5.20;;;12.30;99.90;;;;;;10449483;28;20260;-81
2021/12/25 09:28:00;;;;;;;6.83;4.70;;;12.50;99.90;;;;;;10449432;28;20234;-81
2021/12/25 09:33:03;;;;;;;7.07;4.47;;;12.60;99.90;;;;;;10447319;28;20283;-81
2021/12/25 09:38:05;;;;;;;10.43;4.93;;;12.60;99.90;;;;;;10438063;28;20250;-81
2021/12/25 09:43:08;;;;;;;8.70;5.10;;;12.60;99.90;;;;;;10437527;28;20641;-81
2021/12/25 09:48:11;;;;;;;8.03;5.27;;;12.80;99.70;;;;;;10455438;28;20237;-81
2021/12/25 09:53:16;;;;;;;9.17;5.37;;;12.70;99.50;;;;;;10455318;28;20232;-82
2021/12/25 09:58:19;;;;;;;10.17;6.03;;;12.40;99.90;;;;;;10442556;28;20233;-82
2021/12/25 10:03:22;;;;;;;9.13;5.30;;;12.40;99.90;;;;;;10431432;28;20311;-81
2021/12/25 10:08:26;;;;;;;7.27;5.20;;;12.80;99.30;;;;;;10455056;28;20241;-81
2021/12/25 10:13:39;;;;;;;8.67;4.47;;;12.90;98.70;;;;;;10452890;28;20274;-81
2021/12/25 10:18:42;;;;;;;8.63;4.43;;;12.90;98.20;;;;;;10434553;28;20248;-82
2021/12/25 10:23:45;;;;;;;10.87;5.10;;;12.90;97.60;;;;;;10453123;28;20299;-81
2021/12/25 10:28:47;;;;;;;8.10;5.30;;;13.00;97.30;;;;;;10415078;28;20323;-81
2021/12/25 10:33:52;;;;;;;9.57;5.23;;;13.00;97.00;;;;;;10419001;28;20288;-81
2021/12/25 10:39:06;;;;;;;8.00;5.10;;;12.90;97.10;;;;;;10436106;28;20225;-81
2021/12/25 10:44:19;;;;;;;9.77;5.50;;;12.70;97.40;;;;;;10452261;28;20613;-81
2021/12/25 10:49:24;;;;;;;11.77;6.33;;;12.60;98.00;;;;;;10450463;28;20291;-81
2021/12/25 10:54:43;;;;;;;8.60;5.63;;;11.90;95.00;;;;;;10452747;28;20273;-82
2021/12/25 10:59:48;;;;;;;35.90;17.97;;;11.70;99.90;;;;;;10457578;28;20241;-82
2021/12/25 11:04:50;;;;;;;10.13;5.57;;;10.30;99.90;;;;;;10434440;28;20262;-82
2021/12/25 11:10:10;;;;;;;9.73;6.63;;;10.40;99.90;;;;;;10437977;28;20684;-81
2021/12/25 11:15:15;;;;;;;9.77;5.30;;;10.50;99.90;;;;;;10440241;28;20244;-82
2021/12/25 11:20:27;;;;;;;17.30;9.77;;;11.90;99.90;;;;;;10452289;28;20218;-82
2021/12/25 11:25:31;;;;;;;8.60;5.27;;;11.80;99.70;;;;;;10417647;28;20312;-82
2021/12/25 11:30:37;;;;;;;10.93;6.67;;;12.20;99.90;;;;;;10433748;28;20633;-82
2021/12/25 11:35:40;;;;;;;10.63;7.27;;;12.40;99.90;;;;;;10450718;28;20265;-82
2021/12/25 11:40:50;;;;;;;11.73;6.27;;;12.50;99.70;;;;;;10432610;28;20644;-82
2021/12/25 11:45:53;;;;;;;20.90;11.93;;;12.80;98.40;;;;;;10431389;28;20261;-82
2021/12/25 11:50:55;;;;;;;12.47;7.37;;;12.70;90.90;;;;;;10432616;28;20655;-82
2021/12/25 11:57:01;;;;;;;17.73;9.60;;;12.30;98.60;;;;;;10450520;28;20244;-82
2021/12/25 12:01:41;;;;;;;31.97;14.70;;;12.30;98.50;;;;;;10423392;28;20253;-82
2021/12/25 12:06:44;;;;;;;46.87;21.67;;;11.10;94.70;;;;;;10449267;28;20285;-82
2021/12/25 12:12:07;;;;;;;28.60;12.57;;;7.80;99.90;;;;;;10462139;28;20234;-82
2021/12/25 12:17:31;;;;;;;12.33;7.73;;;10.00;99.90;;;;;;10478266;28;20299;-82
2021/12/25 12:27:59;;;;;;;15.43;8.13;;;12.60;98.80;;;;;;10481374;28;20235;-82
2021/12/25 12:33:24;;;;;;;12.37;7.63;;;12.90;96.80;;;;;;10435923;28;20285;-81
2021/12/25 12:38:43;;;;;;;13.23;7.27;;;13.00;96.10;;;;;;10473134;28;20618;-82
2021/12/25 12:44:04;;;;;;;15.80;7.73;;;13.10;95.00;;;;;;10422427;28;20326;-81
2021/12/25 12:49:07;;;;;;;14.77;7.97;;;13.20;94.50;;;;;;10466398;28;20235;-81
2021/12/25 12:54:31;;;;;;;14.37;7.60;;;13.20;94.10;;;;;;10479670;28;20251;-81
2021/12/25 12:59:57;;;;;;;23.90;11.60;;;13.10;93.90;;;;;;10458221;28;20700;-81
2021/12/25 13:05:01;;;;;;;20.33;10.77;;;12.50;72.60;;;;;;10449213;28;20695;-81
2021/12/25 13:10:18;;;;;;;18.60;11.50;;;12.50;68.10;;;;;;10433693;28;20232;-81
2021/12/25 13:15:32;;;;;;;17.43;10.43;;;12.60;65.30;;;;;;10439558;28;20236;-81
2021/12/25 13:20:48;;;;;;;24.03;10.37;;;12.40;67.10;;;;;;10457294;28;20253;-81
2021/12/25 13:25:52;;;;;;;20.33;10.90;;;12.70;68.70;;;;;;10439240;28;20691;-81
2021/12/25 13:31:04;;;;;;;19.03;11.10;;;12.80;69.60;;;;;;10438416;28;20233;-81
2021/12/25 13:36:14;;;;;;;23.83;12.07;;;12.60;71.20;;;;;;10437486;28;20251;-81
2021/12/25 13:41:33;;;;;;;20.80;10.93;;;10.70;75.70;;;;;;10456344;28;20289;-81
2021/12/25 13:46:45;;;;;;;27.40;12.90;;;11.90;71.00;;;;;;10451894;28;20325;-81
2021/12/25 13:51:47;;;;;;;27.47;12.13;;;10.30;65.00;;;;;;10460296;28;20284;-81
2021/12/25 13:56:53;;;;;;;20.70;11.90;;;11.60;73.90;;;;;;10456172;28;20283;-81
2021/12/25 14:02:13;;;;;;;22.60;11.23;;;12.10;73.70;;;;;;10437421;28;20236;-81
2021/12/25 14:07:23;;;;;;;24.17;11.67;;;12.20;74.20;;;;;;10455293;28;20258;-81
2021/12/25 14:12:28;;;;;;;23.63;11.87;;;12.30;75.50;;;;;;10436363;28;20627;-81
2021/12/25 14:17:31;;;;;;;19.97;10.47;;;12.30;76.40;;;;;;10453273;28;20224;-81
2021/12/25 14:22:34;;;;;;;18.17;10.97;;;12.20;77.30;;;;;;10453610;28;20591;-81
2021/12/25 14:27:36;;;;;;;20.70;11.27;;;12.30;78.40;;;;;;10436745;28;20660;-81
2021/12/25 14:32:46;;;;;;;18.40;10.37;;;12.40;78.80;;;;;;10435720;28;20251;-81
2021/12/25 14:37:55;;;;;;;16.80;9.93;;;12.40;79.30;;;;;;10453901;28;20213;-81
2021/12/25 14:43:02;;;;;;;20.93;11.27;;;12.40;79.90;;;;;;10452944;28;20235;-81
2021/12/25 14:48:06;;;;;;;21.23;10.17;;;12.30;80.60;;;;;;10453573;28;20205;-81
2021/12/25 14:53:15;;;;;;;18.17;10.33;;;12.20;81.50;;;;;;10435568;28;20580;-81
2021/12/25 14:58:21;;;;;;;20.00;10.67;;;12.10;82.40;;;;;;10434810;28;20236;-81
2021/12/25 15:03:23;;;;;;;17.37;10.03;;;12.10;83.30;;;;;;9735825;28;10000836;-81
2021/12/25 15:08:37;;;;;;;22.70;13.10;;;11.80;84.40;;;;;;10449707;28;20646;-81
2021/12/25 15:13:42;;;;;;;18.03;9.73;;;6.50;50.20;;;;;;10446277;28;20273;-81
2021/12/25 15:18:48;;;;;;;17.43;9.87;;;9.10;99.90;;;;;;10425329;28;20286;-81
2021/12/25 15:24:08;;;;;;;17.90;9.63;;;10.40;96.60;;;;;;10447544;28;20313;-81
2021/12/25 15:29:11;;;;;;;16.37;9.67;;;10.90;94.50;;;;;;10413589;28;20810;-81
2021/12/25 15:34:16;;;;;;;16.53;9.43;;;11.30;93.30;;;;;;10409300;28;20251;-81
2021/12/25 15:39:24;;;;;;;14.50;8.87;;;11.20;93.10;;;;;;10388653;28;20240;-81
2021/12/25 15:44:28;;;;;;;16.67;9.60;;;11.50;92.60;;;;;;10410394;28;20303;-81
2021/12/25 15:49:31;;;;;;;15.70;9.33;;;11.70;92.10;;;;;;10411271;28;20686;-81
2021/12/25 15:54:38;;;;;;;19.10;10.83;;;11.50;92.40;;;;;;10421679;28;20678;-81
2021/12/25 15:59:41;;;;;;;18.50;9.80;;;11.60;92.20;;;;;;10438045;28;20247;-81
2021/12/25 16:04:44;;;;;;;17.23;9.37;;;11.60;92.20;;;;;;10406571;28;20284;-81
2021/12/25 16:09:46;;;;;;;16.13;9.40;;;11.80;92.10;;;;;;10414783;28;20272;-81
2021/12/25 16:14:49;;;;;;;20.20;10.13;;;11.90;91.60;;;;;;10426357;28;20283;-81
2021/12/25 16:19:51;;;;;;;17.27;10.07;;;11.60;91.70;;;;;;10425369;28;20273;-81
2021/12/25 16:24:54;;;;;;;20.17;10.87;;;11.30;92.60;;;;;;10412992;28;20298;-81
2021/12/25 16:29:56;;;;;;;21.70;12.37;;;11.10;93.00;;;;;;10388545;28;20356;-81
2021/12/25 16:34:59;;;;;;;17.53;10.33;;;10.80;93.40;;;;;;10387966;28;20253;-81
2021/12/25 16:40:02;;;;;;;20.93;12.07;;;10.60;94.50;;;;;;10404587;28;20273;-81
2021/12/25 16:45:07;;;;;;;78.70;36.43;;;10.40;95.20;;;;;;10372350;28;20816;-81
2021/12/25 16:50:10;;;;;;;28.70;15.50;;;9.70;93.10;;;;;;10414987;28;20228;-81
2021/12/25 16:55:14;;;;;;;23.80;12.03;;;9.00;99.90;;;;;;10412976;28;20237;-81
2021/12/25 17:00:20;;;;;;;23.53;13.83;;;9.40;99.90;;;;;;10395197;28;20281;-81
2021/12/25 17:05:24;;;;;;;23.57;13.13;;;9.90;99.90;;;;;;10412798;28;20759;-81
2021/12/25 17:10:28;;;;;;;22.73;13.37;;;10.00;99.60;;;;;;10395649;28;20271;-80
2021/12/25 17:15:33;;;;;;;27.70;14.30;;;10.10;99.40;;;;;;10394132;28;20259;-81
2021/12/25 17:20:39;;;;;;;25.57;15.47;;;10.50;98.00;;;;;;10415241;28;20262;-81
2021/12/25 17:25:41;;;;;;;32.63;16.33;;;10.80;96.80;;;;;;10397964;28;20289;-81
2021/12/25 17:30:49;;;;;;;36.67;17.40;;;10.90;96.20;;;;;;10415510;28;20219;-81
2021/12/25 17:35:56;;;;;;;33.27;18.43;;;10.90;95.70;;;;;;10446619;28;20260;-81
2021/12/25 17:41:03;;;;;;;35.33;18.17;;;10.90;95.80;;;;;;10493803;28;20214;-81
2021/12/25 17:46:06;;;;;;;33.10;17.40;;;10.80;95.80;;;;;;10421686;28;20397;-81
2021/12/25 17:51:08;;;;;;;31.83;18.33;;;10.70;96.60;;;;;;10437594;28;20235;-81
2021/12/25 17:56:11;;;;;;;145.37;69.73;;;11.30;95.00;;;;;;10437009;28;20705;-81
2021/12/25 18:01:14;;;;;;;124.53;58.93;;;7.90;63.30;;;;;;10455840;28;20288;-81
2021/12/25 18:06:17;;;;;;;84.07;41.77;;;5.90;92.90;;;;;;10455071;28;20514;-81
2021/12/25 18:11:19;;;;;;;63.63;31.43;;;6.50;98.30;;;;;;10454822;28;20227;-81
2021/12/25 18:16:24;;;;;;;59.90;31.17;;;8.20;95.60;;;;;;10454562;28;20299;-81
2021/12/25 18:21:26;;;;;;;92.70;43.67;;;10.30;90.30;;;;;;10471291;28;20273;-81
2021/12/25 18:26:29;;;;;;;62.23;32.13;;;10.10;87.90;;;;;;10496341;28;20316;-81
2021/12/25 18:31:32;;;;;;;67.20;33.13;;;10.40;90.30;;;;;;10481540;28;20302;-81
2021/12/25 18:36:34;;;;;;;66.70;34.77;;;11.20;88.30;;;;;;10435481;28;20303;-81
2021/12/25 18:41:38;;;;;;;60.07;31.37;;;11.50;86.80;;;;;;10455269;28;20239;-81
2021/12/25 18:46:40;;;;;;;60.43;32.53;;;11.80;86.70;;;;;;10471478;28;20314;-81
2021/12/25 18:51:44;;;;;;;62.97;33.00;;;11.90;85.80;;;;;;10453791;28;20258;-81
2021/12/25 18:56:47;;;;;;;64.40;33.13;;;11.90;85.90;;;;;;10449653;28;20234;-81
2021/12/25 19:01:50;;;;;;;64.87;34.17;;;11.70;86.80;;;;;;10452880;28;20257;-81
2021/12/25 19:06:54;;;;;;;64.60;33.40;;;11.50;88.30;;;;;;10435223;28;20309;-81
2021/12/25 19:11:57;;;;;;;62.47;32.37;;;11.50;88.40;;;;;;10466011;28;20235;-81
2021/12/25 19:17:00;;;;;;;56.27;30.93;;;11.50;88.60;;;;;;10092223;28;10000279;-81
2021/12/25 19:22:03;;;;;;;57.37;31.13;;;11.60;88.30;;;;;;10459935;28;20302;-81
2021/12/25 19:27:06;;;;;;;65.67;32.03;;;11.80;88.10;;;;;;10431501;28;20256;-81
2021/12/25 19:32:09;;;;;;;62.90;31.90;;;11.80;88.00;;;;;;10448077;28;20711;-81
2021/12/25 19:37:11;;;;;;;66.23;32.67;;;11.70;88.40;;;;;;10431067;28;20226;-81
2021/12/25 19:42:14;;;;;;;60.40;32.63;;;11.50;89.10;;;;;;10472136;28;20287;-81
2021/12/25 19:47:16;;;;;;;57.80;32.50;;;11.20;90.20;;;;;;10448075;28;20305;-81
2021/12/25 19:52:19;;;;;;;62.20;32.00;;;11.40;90.00;;;;;;10429946;28;21035;-81
2021/12/25 19:57:21;;;;;;;63.73;33.23;;;11.60;89.40;;;;;;10428917;28;20700;-81
2021/12/25 20:02:25;;;;;;;59.43;32.13;;;11.70;89.00;;;;;;10429280;28;20275;-81
2021/12/25 20:07:28;;;;;;;57.90;31.87;;;11.80;88.70;;;;;;10447799;28;20264;-81
2021/12/25 20:12:30;;;;;;;60.00;32.07;;;11.80;88.50;;;;;;10447184;28;20236;-81
2021/12/25 20:17:33;;;;;;;61.00;32.33;;;11.80;88.60;;;;;;10412217;28;20650;-81
2021/12/25 20:22:37;;;;;;;61.07;33.20;;;11.80;88.30;;;;;;10446738;28;20231;-81
2021/12/25 20:27:41;;;;;;;61.50;31.67;;;11.90;87.90;;;;;;10446767;28;20258;-81
2021/12/25 20:32:43;;;;;;;63.23;33.10;;;11.90;87.60;;;;;;10428869;28;20261;-81
2021/12/25 20:37:47;;;;;;;64.70;34.70;;;11.80;87.80;;;;;;10429345;28;20647;-81
2021/12/25 20:42:50;;;;;;;64.23;33.37;;;11.70;88.20;;;;;;10447869;28;20758;-81
2021/12/25 20:47:53;;;;;;;57.23;31.50;;;11.50;89.10;;;;;;10460122;28;20718;-81
2021/12/25 20:52:55;;;;;;;65.70;34.27;;;11.50;89.50;;;;;;10451570;28;20229;-81
2021/12/25 20:57:58;;;;;;;65.70;32.87;;;11.30;90.10;;;;;;10428930;28;20776;-81
2021/12/25 21:03:03;;;;;;;85.70;43.30;;;11.20;90.10;;;;;;10428157;28;20315;-81
2021/12/25 21:08:07;;;;;;;62.63;34.03;;;10.80;90.00;;;;;;10420003;28;20720;-81
2021/12/25 21:13:10;;;;;;;71.67;37.00;;;10.70;91.60;;;;;;10444721;28;20678;-81
2021/12/25 21:18:13;;;;;;;60.00;32.93;;;10.80;91.40;;;;;;10443645;28;20266;-82
2021/12/25 21:23:16;;;;;;;63.67;34.27;;;11.10;91.20;;;;;;10441765;28;20280;-81
2021/12/25 21:28:18;;;;;;;64.80;33.07;;;11.20;90.60;;;;;;10416621;28;20244;-81
2021/12/25 21:33:21;;;;;;;66.43;33.83;;;11.50;90.10;;;;;;10438060;28;20278;-81
2021/12/25 21:38:27;;;;;;;62.57;33.77;;;11.50;89.80;;;;;;10451191;28;20695;-81
2021/12/25 21:43:30;;;;;;;70.03;34.77;;;11.30;90.20;;;;;;10430588;28;20262;-81
2021/12/25 21:48:32;;;;;;;64.00;34.60;;;11.20;90.30;;;;;;10437413;28;20315;-81
2021/12/25 21:53:34;;;;;;;70.37;35.67;;;11.10;90.60;;;;;;10447534;28;20229;-81
2021/12/25 21:58:38;;;;;;;70.60;35.70;;;11.20;90.40;;;;;;10424758;28;20229;-81
2021/12/25 22:03:42;;;;;;;72.50;36.27;;;11.00;90.60;;;;;;10453315;28;20291;-82
2021/12/25 22:08:45;;;;;;;69.77;35.40;;;10.50;91.10;;;;;;10467833;28;20653;-81
2021/12/25 22:13:53;;;;;;;83.37;40.43;;;10.40;92.00;;;;;;10496572;28;20236;-81
2021/12/25 22:18:56;;;;;;;71.47;37.43;;;10.60;91.30;;;;;;10464360;28;20234;-80
2021/12/25 22:23:58;;;;;;;68.27;36.37;;;10.40;91.50;;;;;;10481627;28;20236;-81
2021/12/25 22:29:01;;;;;;;81.70;38.17;;;10.40;92.10;;;;;;10436008;28;20260;-82
2021/12/25 22:34:04;;;;;;;77.97;39.27;;;10.40;91.20;;;;;;10418485;28;20741;-82
2021/12/25 22:39:08;;;;;;;71.63;37.43;;;10.20;92.20;;;;;;10378653;28;20202;-82
2021/12/25 22:44:11;;;;;;;69.33;36.30;;;10.20;92.70;;;;;;10405797;28;20637;-83
2021/12/25 22:49:14;;;;;;;74.57;38.30;;;10.50;92.10;;;;;;10416884;28;20302;-82
2021/12/25 22:54:18;;;;;;;86.27;38.30;;;10.40;91.90;;;;;;10394974;28;20612;-82
2021/12/25 22:59:20;;;;;;;67.13;34.63;;;10.40;92.10;;;;;;10394789;28;20282;-81
2021/12/25 23:04:23;;;;;;;69.70;38.10;;;10.40;91.90;;;;;;10411469;28;20283;-82
2021/12/25 23:09:25;;;;;;;76.53;38.57;;;10.40;92.10;;;;;;10414143;28;20782;-81
2021/12/25 23:14:28;;;;;;;71.23;35.43;;;10.50;91.90;;;;;;10407490;28;20224;-81
2021/12/25 23:19:32;;;;;;;73.17;37.23;;;10.60;91.50;;;;;;10374182;28;20283;-81
2021/12/25 23:24:35;;;;;;;73.53;37.57;;;10.60;91.60;;;;;;10394389;28;20262;-81
2021/12/25 23:29:37;;;;;;;69.73;37.57;;;10.70;91.40;;;;;;10392179;28;20303;-81
2021/12/25 23:34:40;;;;;;;73.73;36.73;;;10.50;91.60;;;;;;10426515;28;20332;-81
2021/12/25 23:39:42;;;;;;;76.90;37.57;;;10.60;91.40;;;;;;10450441;28;20674;-82
2021/12/25 23:44:47;;;;;;;74.37;39.03;;;10.40;91.60;;;;;;10432305;28;20210;-81
2021/12/25 23:49:49;;;;;;;72.67;38.33;;;10.60;91.20;;;;;;10451445;28;20259;-82
2021/12/25 23:54:53;;;;;;;74.20;37.60;;;10.70;90.90;;;;;;10450682;28;20235;-82
2021/12/25 23:59:55;;;;;;;83.47;40.47;;;10.70;90.90;;;;;;10451008;28;20289;-82
